Portada
METAR-TAF:

METAR-TAF

Aeroports :

Aeroport Internacional de Xangai-Hongqiao

Xangai-Hongqiao, Xina

latitud: 31-10N, longitud: 121-26E, altitud: 7 m

Observació

L'informe es va fer fa 41 minuts, a les 05:00 UTC
Vent 6 kt del Nord/Nord-Oest, variant entre Nord-Oest i Nord
Temperatura 5°C
Humitat 65%
Pressió 1025 hPa
Visibilitat: 8000 m
Núvols disperses a una alçada de 2300 ft
Cel cobert a una alçada de 3300 ft

METAR: ZSSS 180500Z 34003MPS 310V010 8000 SCT023 OVC033 05/M01 Q1025 NOSIG

Hora: 13:41 (05:41 UTC)

Pronòstic

L'informe es va fer fa 2 hores i 34 minuts, a les 03:07 UTC
Pronòstic vàlid del 18 a les 06 UTC al 19 a les 06 UTC
Vent 6 kt del Nord-Oest
Visibilitat: 5000 m
Cel ennuvolat a una alçada de 2000 ft
boirina

TAF: ZSSS 180307Z 1806/1906 32003MPS 5000 BR BKN020 TX08/1906Z TN02/1821Z

Observacions i pronòstics meteorològics de més de 4000 aeroports (METAR i TAF).

Les estacions disponibles són els punts grocs i vermells al mapa.

Posi el ratolí al punt desitjat per veure el nom de l'estació.

Feu clic per veure les observacions i els pronòstics meteorològics.

Per canviar el mapa: feu clic els botons verds amb una creu de color negre per apropar; al botó verd amb un guió per allunyar la imatge; o en les fletxes verdes per a mapes adjacents.


METAR-TAF: